createdAt,value
2022-08-03T00:00:26.517Z,4.03
2022-08-03T00:02:53.667Z,4.93
2022-08-03T00:05:20.709Z,3.92
2022-08-03T00:07:48.577Z,3.72
2022-08-03T00:10:17.209Z,3.97
2022-08-03T00:12:44.105Z,4.45
2022-08-03T00:15:16.392Z,4.07
2022-08-03T00:17:53.322Z,3.92
2022-08-03T00:20:22.164Z,3.70
2022-08-03T00:25:16.503Z,3.30
2022-08-03T00:27:43.502Z,3.13
2022-08-03T00:30:10.698Z,3.58
2022-08-03T00:32:38.889Z,3.42
2022-08-03T00:35:29.349Z,3.40
2022-08-03T00:37:59.177Z,4.80
2022-08-03T00:40:26.283Z,4.80
2022-08-03T00:42:53.799Z,4.30
2022-08-03T00:45:29.507Z,3.70
2022-08-03T00:47:57.095Z,3.63
2022-08-03T00:50:25.831Z,3.97
2022-08-03T00:52:54.432Z,4.80
2022-08-03T00:55:21.679Z,4.07
2022-08-03T00:57:48.791Z,3.92
2022-08-03T01:00:19.087Z,4.03
2022-08-03T01:02:46.207Z,3.80
2022-08-03T01:05:13.808Z,3.95
2022-08-03T01:08:14.977Z,4.30
2022-08-03T01:11:04.890Z,3.97
2022-08-03T01:13:59.801Z,4.13
2022-08-03T01:16:42.119Z,4.00
2022-08-03T01:19:31.577Z,4.10
2022-08-03T01:22:42.611Z,3.75
2022-08-03T01:25:28.542Z,3.83
2022-08-03T01:28:00.228Z,4.15
2022-08-03T01:30:40.898Z,3.90
2022-08-03T01:33:15.580Z,4.28
2022-08-03T01:35:47.177Z,4.07
2022-08-03T01:38:22.219Z,3.60
2022-08-03T01:40:52.425Z,4.05
2022-08-03T01:44:28.231Z,3.70
2022-08-03T01:46:10.440Z,4.13
2022-08-03T01:48:40.032Z,4.00
2022-08-03T01:51:09.439Z,4.00
2022-08-03T01:53:38.318Z,4.07
2022-08-03T01:56:07.169Z,4.43
2022-08-03T01:58:36.579Z,4.13
2022-08-03T02:01:05.858Z,3.95
2022-08-03T02:03:38.200Z,3.85
2022-08-03T02:07:00.420Z,3.88
2022-08-03T02:09:15.443Z,4.47
2022-08-03T02:11:43.711Z,4.05
2022-08-03T02:16:37.555Z,4.07
2022-08-03T02:19:07.434Z,4.47
2022-08-03T02:21:57.387Z,4.35
2022-08-03T02:24:24.439Z,4.57
2022-08-03T02:26:54.123Z,4.38
2022-08-03T02:29:39.476Z,3.80
2022-08-03T02:32:12.628Z,3.85
2022-08-03T02:34:41.084Z,3.88
2022-08-03T02:37:10.349Z,3.80
2022-08-03T02:39:38.868Z,4.15
2022-08-03T02:42:08.575Z,4.10
2022-08-03T02:44:37.342Z,4.18
2022-08-03T02:47:08.019Z,4.10
2022-08-03T02:49:50.627Z,4.47
2022-08-03T02:52:24.060Z,3.80
2022-08-03T02:54:54.967Z,3.85
2022-08-03T02:57:23.070Z,3.30
2022-08-03T02:59:51.683Z,3.42
2022-08-03T03:02:19.888Z,4.10
2022-08-03T03:07:51.242Z,4.60
2022-08-03T03:10:23.882Z,4.00
2022-08-03T03:12:53.308Z,3.90
2022-08-03T03:15:20.465Z,3.70
2022-08-03T03:17:49.739Z,3.83
2022-08-03T03:20:29.002Z,3.97
2022-08-03T03:23:00.154Z,3.53
2022-08-03T03:25:34.389Z,3.67
2022-08-03T03:28:02.875Z,4.22
2022-08-03T03:30:30.234Z,4.15
2022-08-03T03:32:59.296Z,3.63
2022-08-03T03:35:27.808Z,3.40
2022-08-03T03:37:54.863Z,3.75
2022-08-03T03:40:22.446Z,4.10
2022-08-03T03:42:50.480Z,3.92
2022-08-03T03:45:17.918Z,3.58
2022-08-03T03:47:44.752Z,4.15
2022-08-03T03:50:12.564Z,4.32
2022-08-03T03:52:39.666Z,3.67
2022-08-03T03:55:07.337Z,3.95
2022-08-03T03:57:34.633Z,4.43
2022-08-03T04:00:01.474Z,4.00
2022-08-03T04:02:28.404Z,5.28
2022-08-03T04:05:13.680Z,4.90
2022-08-03T04:08:09.203Z,4.88
2022-08-03T04:11:00.185Z,4.32
2022-08-03T04:13:51.698Z,4.30
2022-08-03T04:16:21.339Z,4.85
2022-08-03T04:18:52.587Z,4.75
2022-08-03T04:21:23.479Z,3.95
2022-08-03T04:23:53.755Z,4.25
2022-08-03T04:26:23.519Z,4.32
2022-08-03T04:28:52.167Z,4.80
2022-08-03T04:31:23.120Z,4.60
2022-08-03T04:33:51.815Z,4.55
2022-08-03T04:36:22.325Z,5.13
2022-08-03T04:39:13.481Z,5.13
2022-08-03T04:42:07.692Z,4.03
2022-08-03T04:46:57.975Z,4.03
2022-08-03T04:49:26.200Z,4.72
2022-08-03T04:54:19.992Z,4.10
2022-08-03T04:56:46.859Z,3.63
2022-08-03T04:59:14.047Z,3.60
2022-08-03T05:01:42.448Z,3.40
2022-08-03T05:04:09.796Z,3.80
2022-08-03T05:06:36.583Z,3.70
2022-08-03T05:09:12.132Z,3.45
2022-08-03T05:11:41.371Z,3.58
2022-08-03T05:14:08.237Z,3.75
2022-08-03T05:16:35.026Z,3.63
2022-08-03T05:19:02.060Z,3.72
2022-08-03T05:21:52.564Z,3.60
2022-08-03T05:24:16.347Z,3.42
2022-08-03T05:26:43.212Z,3.67
2022-08-03T05:29:10.015Z,3.60
2022-08-03T05:31:36.827Z,3.28
2022-08-03T05:34:03.819Z,3.50
2022-08-03T05:36:30.817Z,3.03
2022-08-03T05:39:02.465Z,3.10
2022-08-03T05:41:37.071Z,2.90
2022-08-03T05:44:05.020Z,3.13
2022-08-03T05:46:32.037Z,2.95
2022-08-03T05:48:58.894Z,2.97
2022-08-03T05:51:25.675Z,2.80
2022-08-03T05:53:52.473Z,3.00
2022-08-03T05:56:24.478Z,2.75
2022-08-03T05:58:52.488Z,3.05
2022-08-03T06:01:21.902Z,2.50
2022-08-03T06:03:50.269Z,3.03
2022-08-03T06:08:44.764Z,3.00
2022-08-03T06:11:12.460Z,2.42
2022-08-03T06:13:39.878Z,2.70
2022-08-03T06:16:06.742Z,2.90
2022-08-03T06:18:33.820Z,2.60
2022-08-03T06:21:14.316Z,3.22
2022-08-03T06:23:53.873Z,2.40
2022-08-03T06:26:23.667Z,2.72
2022-08-03T06:31:33.348Z,2.85
2022-08-03T06:34:30.782Z,2.75
2022-08-03T06:36:52.529Z,2.70
2022-08-03T06:39:19.858Z,3.05
2022-08-03T06:41:46.740Z,2.90
2022-08-03T06:44:13.605Z,2.78
2022-08-03T06:46:40.647Z,3.15
2022-08-03T06:49:08.097Z,2.67
2022-08-03T06:52:03.276Z,2.53
2022-08-03T06:54:22.372Z,2.50
2022-08-03T06:56:49.519Z,3.40
2022-08-03T07:00:06.575Z,6.65
2022-08-03T07:02:03.835Z,4.67
2022-08-03T07:04:30.684Z,7.35
2022-08-03T07:06:57.520Z,6.10
2022-08-03T07:09:24.374Z,9.27
2022-08-03T07:11:51.152Z,4.70
2022-08-03T07:14:18.060Z,3.22
2022-08-03T07:16:44.954Z,2.90
2022-08-03T07:19:12.341Z,2.70
2022-08-03T07:21:39.178Z,2.40
2022-08-03T07:24:06.359Z,2.25
2022-08-03T07:26:33.199Z,2.20
2022-08-03T07:29:01.518Z,3.30
2022-08-03T07:31:28.340Z,2.72
2022-08-03T07:34:01.433Z,8.57
2022-08-03T07:36:28.343Z,4.95
2022-08-03T07:38:55.172Z,2.15
2022-08-03T07:41:22.318Z,2.28
2022-08-03T07:43:49.127Z,2.50
2022-08-03T07:46:16.063Z,2.20
2022-08-03T07:48:42.884Z,2.60
2022-08-03T07:51:09.679Z,2.28
2022-08-03T07:53:37.896Z,2.50
2022-08-03T07:56:14.292Z,2.33
2022-08-03T07:58:41.172Z,3.08
2022-08-03T08:01:08.064Z,2.42
2022-08-03T08:06:19.893Z,2.38
2022-08-03T08:08:46.936Z,2.53
2022-08-03T08:11:13.827Z,3.00
2022-08-03T08:13:40.672Z,2.65
2022-08-03T08:16:07.586Z,2.47
2022-08-03T08:18:34.550Z,2.50
2022-08-03T08:21:04.500Z,2.33
2022-08-03T08:23:37.973Z,2.47
2022-08-03T08:26:09.932Z,2.10
2022-08-03T08:28:36.700Z,2.35
2022-08-03T08:31:03.769Z,3.38
2022-08-03T08:34:01.042Z,2.85
2022-08-03T08:36:18.045Z,2.80
2022-08-03T08:38:45.129Z,2.97
2022-08-03T08:41:13.189Z,2.42
2022-08-03T08:43:40.424Z,2.67
2022-08-03T08:46:12.042Z,2.30
2022-08-03T08:48:46.426Z,3.13
2022-08-03T08:51:15.629Z,2.53
2022-08-03T08:53:48.031Z,9.15
2022-08-03T08:56:16.217Z,3.03
2022-08-03T09:01:21.988Z,2.28
2022-08-03T09:03:49.024Z,2.17
2022-08-03T09:06:16.955Z,2.38
2022-08-03T09:08:44.112Z,2.67
2022-08-03T09:11:12.028Z,2.10
2022-08-03T09:13:39.377Z,2.45
2022-08-03T09:16:11.233Z,2.25
2022-08-03T09:18:38.270Z,2.10
2022-08-03T09:21:31.322Z,2.50
2022-08-03T09:24:03.803Z,2.70
2022-08-03T09:26:34.515Z,2.20
2022-08-03T09:29:14.073Z,2.20
2022-08-03T09:31:44.902Z,2.38
2022-08-03T09:34:14.300Z,2.72
2022-08-03T09:36:47.362Z,2.15
2022-08-03T09:39:41.288Z,2.53
2022-08-03T09:42:15.070Z,2.10
2022-08-03T09:44:44.609Z,2.63
2022-08-03T09:47:13.268Z,2.28
2022-08-03T09:49:42.072Z,3.00
2022-08-03T09:52:39.470Z,2.60
2022-08-03T09:56:30.958Z,2.63
2022-08-03T09:58:10.708Z,2.28
2022-08-03T10:01:00.268Z,1.98
2022-08-03T10:03:30.283Z,2.10
2022-08-03T10:05:59.734Z,2.20
2022-08-03T10:08:27.198Z,2.35
2022-08-03T10:10:54.703Z,1.95
2022-08-03T10:13:23.398Z,2.15
2022-08-03T10:16:21.816Z,2.15
2022-08-03T10:18:37.931Z,2.53
2022-08-03T10:21:10.370Z,2.58
2022-08-03T10:23:38.786Z,2.10
2022-08-03T10:26:07.865Z,2.10
2022-08-03T10:28:46.249Z,2.10
2022-08-03T10:31:14.515Z,2.00
2022-08-03T10:33:52.887Z,2.50
2022-08-03T10:36:24.466Z,2.35
2022-08-03T10:38:53.693Z,2.33
2022-08-03T10:41:21.962Z,2.00
2022-08-03T10:46:19.469Z,1.92
2022-08-03T10:48:48.023Z,1.95
2022-08-03T10:51:15.532Z,2.65
2022-08-03T10:53:54.804Z,2.15
2022-08-03T10:56:53.270Z,2.20
2022-08-03T10:59:46.859Z,2.40
2022-08-03T11:02:16.734Z,2.88
2022-08-03T11:04:45.217Z,3.17
2022-08-03T11:07:23.944Z,2.70
2022-08-03T11:09:53.013Z,4.88
2022-08-03T11:12:30.409Z,2.00
2022-08-03T11:19:57.411Z,2.42
2022-08-03T11:22:26.262Z,2.30
2022-08-03T11:24:57.051Z,2.35
2022-08-03T11:27:30.736Z,2.00
2022-08-03T11:30:06.871Z,1.70
2022-08-03T11:32:48.265Z,1.83
2022-08-03T11:35:16.759Z,1.92
2022-08-03T11:38:03.577Z,1.80
2022-08-03T11:40:54.411Z,1.88
2022-08-03T11:43:26.687Z,1.83
2022-08-03T11:46:02.025Z,1.92
2022-08-03T11:48:40.272Z,2.13
2022-08-03T11:51:18.577Z,2.75
2022-08-03T11:53:47.761Z,2.20
2022-08-03T11:56:14.546Z,1.75
2022-08-03T11:59:17.314Z,2.10
2022-08-03T12:01:41.805Z,2.17
2022-08-03T12:04:08.893Z,1.77
2022-08-03T12:06:54.815Z,2.15
2022-08-03T12:09:22.438Z,1.90
2022-08-03T12:12:00.603Z,2.65
2022-08-03T12:14:50.842Z,2.17
2022-08-03T12:17:17.111Z,2.08
2022-08-03T12:19:44.904Z,2.28
2022-08-03T12:22:11.811Z,2.00
2022-08-03T12:24:47.171Z,2.00
2022-08-03T12:27:24.964Z,2.00
2022-08-03T12:29:59.024Z,2.50
2022-08-03T12:32:27.673Z,2.40
2022-08-03T12:34:55.678Z,2.10
2022-08-03T12:40:09.981Z,2.15
2022-08-03T12:42:39.811Z,2.13
2022-08-03T12:45:26.526Z,2.30
2022-08-03T12:48:01.575Z,3.10
2022-08-03T12:50:36.839Z,2.55
2022-08-03T12:53:08.026Z,1.88
2022-08-03T12:55:57.948Z,2.17
2022-08-03T12:58:36.001Z,2.60
2022-08-03T13:01:09.710Z,2.78
2022-08-03T13:03:43.369Z,2.55
2022-08-03T13:06:14.220Z,2.20
2022-08-03T13:08:41.512Z,2.35
2022-08-03T13:11:53.637Z,2.40
2022-08-03T13:14:19.661Z,2.38
2022-08-03T13:16:48.465Z,2.10
2022-08-03T13:19:16.200Z,1.95
2022-08-03T13:22:01.689Z,3.40
2022-08-03T13:24:31.915Z,2.75
2022-08-03T13:29:26.047Z,1.80
2022-08-03T13:31:53.247Z,2.47
2022-08-03T13:34:23.459Z,2.33
2022-08-03T13:37:09.325Z,2.20
2022-08-03T13:39:58.055Z,2.30
2022-08-03T13:42:23.645Z,2.47
2022-08-03T13:44:50.824Z,2.90
2022-08-03T13:47:17.845Z,2.78
2022-08-03T13:49:59.815Z,3.40
2022-08-03T13:52:35.844Z,3.25
2022-08-03T13:55:05.030Z,2.83
2022-08-03T13:58:11.431Z,2.58
2022-08-03T14:00:27.497Z,2.77
2022-08-03T14:03:12.664Z,2.90
2022-08-03T14:05:41.938Z,2.40
2022-08-03T14:10:38.808Z,3.15
2022-08-03T14:13:06.586Z,2.65
2022-08-03T14:15:37.856Z,3.15
2022-08-03T14:18:11.964Z,2.83
2022-08-03T14:20:47.849Z,2.75
2022-08-03T14:23:17.687Z,2.10
2022-08-03T14:25:52.084Z,2.38
2022-08-03T14:28:22.567Z,2.30
2022-08-03T14:30:50.555Z,1.95
2022-08-03T14:33:17.670Z,2.20
2022-08-03T14:35:44.567Z,2.10
2022-08-03T14:38:11.389Z,1.90
2022-08-03T14:40:38.219Z,2.40
2022-08-03T14:43:05.185Z,2.30
2022-08-03T14:45:32.084Z,2.23
2022-08-03T14:50:28.402Z,2.42
2022-08-03T14:50:51.591Z,2.28
2022-08-03T14:53:19.593Z,2.35
2022-08-03T14:55:50.983Z,2.60
2022-08-03T14:58:23.185Z,2.30
2022-08-03T15:00:52.202Z,2.40
2022-08-03T15:03:23.046Z,2.75
2022-08-03T15:05:54.276Z,2.95
2022-08-03T15:08:22.151Z,2.50
2022-08-03T15:13:17.226Z,3.17
2022-08-03T15:15:44.094Z,2.40
2022-08-03T15:18:11.090Z,2.58
2022-08-03T15:20:46.694Z,2.40
2022-08-03T15:23:15.524Z,2.58
2022-08-03T15:26:06.512Z,2.35
2022-08-03T15:28:31.642Z,2.33
2022-08-03T15:30:58.781Z,2.50
2022-08-03T15:33:25.821Z,1.87
2022-08-03T15:35:53.362Z,2.60
2022-08-03T15:38:26.268Z,2.42
2022-08-03T15:40:54.764Z,3.17
2022-08-03T15:43:22.816Z,2.75
2022-08-03T15:48:36.519Z,2.83
2022-08-03T15:51:05.055Z,2.95
2022-08-03T15:53:32.346Z,3.00
2022-08-03T15:55:59.392Z,2.70
2022-08-03T15:59:04.450Z,2.13
2022-08-03T16:01:19.868Z,2.50
2022-08-03T16:03:47.106Z,2.60
2022-08-03T16:06:13.978Z,5.20
2022-08-03T16:08:41.032Z,4.55
2022-08-03T16:11:08.115Z,3.03
2022-08-03T16:14:13.209Z,2.77
2022-08-03T16:16:21.706Z,4.00
2022-08-03T16:18:48.489Z,5.20
2022-08-03T16:21:18.493Z,2.65
2022-08-03T16:23:47.278Z,2.28
2022-08-03T16:26:14.641Z,3.00
2022-08-03T16:28:41.590Z,2.63
2022-08-03T16:31:09.209Z,2.90
2022-08-03T16:33:36.450Z,2.70
2022-08-03T16:36:03.698Z,2.92
2022-08-03T16:38:31.277Z,3.75
2022-08-03T16:40:58.432Z,2.65
2022-08-03T16:43:25.291Z,4.70
2022-08-03T16:45:52.527Z,6.53
2022-08-03T16:48:19.962Z,6.40
2022-08-03T16:50:47.490Z,5.30
2022-08-03T16:53:17.520Z,3.20
2022-08-03T16:56:00.509Z,3.20
2022-08-03T16:58:41.725Z,3.20
2022-08-03T17:01:21.666Z,2.53
2022-08-03T17:04:01.317Z,2.60
2022-08-03T17:06:35.604Z,3.13
2022-08-03T17:09:08.939Z,2.80
2022-08-03T17:11:38.952Z,2.70
2022-08-03T17:14:12.279Z,2.45
2022-08-03T17:16:39.586Z,2.85
2022-08-03T17:19:21.888Z,3.25
2022-08-03T17:22:04.289Z,3.60
2022-08-03T17:24:41.409Z,2.85
2022-08-03T17:28:42.107Z,3.40
2022-08-03T17:30:10.041Z,2.90
2022-08-03T17:35:34.452Z,3.55
2022-08-03T17:38:06.725Z,2.67
2022-08-03T17:40:37.992Z,3.50
2022-08-03T17:44:14.509Z,4.40
2022-08-03T17:45:54.742Z,3.53
2022-08-03T17:48:25.138Z,3.28
2022-08-03T17:50:59.519Z,3.80
2022-08-03T17:53:33.199Z,4.57
2022-08-03T17:56:44.354Z,4.40
2022-08-03T17:59:51.918Z,4.10
2022-08-03T18:02:52.493Z,3.75
2022-08-03T18:05:22.148Z,3.20
2022-08-03T18:07:59.162Z,4.15
2022-08-03T18:10:34.143Z,5.10
2022-08-03T18:13:14.376Z,4.50
2022-08-03T18:15:50.558Z,5.80
2022-08-03T18:18:29.218Z,5.00
2022-08-03T18:23:52.157Z,3.70
2022-08-03T18:26:20.428Z,4.78
2022-08-03T18:28:51.832Z,4.40
2022-08-03T18:31:59.895Z,3.85
2022-08-03T18:34:17.133Z,4.05
2022-08-03T18:39:50.302Z,4.63
2022-08-03T18:42:20.359Z,5.78
2022-08-03T18:44:56.329Z,4.80
2022-08-03T18:47:52.342Z,5.90
2022-08-03T18:50:50.135Z,5.10
2022-08-03T18:54:03.393Z,4.43
2022-08-03T18:56:43.888Z,5.20
2022-08-03T18:59:30.141Z,5.60
2022-08-03T19:02:05.778Z,5.70
2022-08-03T19:04:47.605Z,5.10
2022-08-03T19:07:23.246Z,5.20
2022-08-03T19:10:03.692Z,6.75
2022-08-03T19:12:44.475Z,5.50
2022-08-03T19:15:15.617Z,4.57
2022-08-03T19:17:50.125Z,4.53
2022-08-03T19:20:25.652Z,5.18
2022-08-03T19:22:55.117Z,6.07
2022-08-03T19:25:33.386Z,6.75
2022-08-03T19:28:05.929Z,8.30
2022-08-03T19:30:38.937Z,8.90
2022-08-03T19:33:11.449Z,9.65
2022-08-03T19:35:55.420Z,10.13
2022-08-03T19:38:29.293Z,10.13
2022-08-03T19:41:00.868Z,9.65
2022-08-03T19:43:53.549Z,10.73
2022-08-03T19:46:49.872Z,10.55
2022-08-03T19:49:19.336Z,11.60
2022-08-03T19:52:01.138Z,11.48
2022-08-03T19:54:45.782Z,11.00
2022-08-03T19:57:24.395Z,11.05
2022-08-03T19:59:52.567Z,11.90
2022-08-03T20:04:55.054Z,11.57
2022-08-03T20:07:23.858Z,11.75
2022-08-03T20:15:14.578Z,9.38
2022-08-03T20:17:55.116Z,10.40
2022-08-03T20:20:30.224Z,9.02
2022-08-03T20:22:58.796Z,9.13
2022-08-03T20:25:38.986Z,10.77
2022-08-03T20:28:14.129Z,9.82
2022-08-03T20:30:44.245Z,9.13
2022-08-03T20:33:11.384Z,9.30
2022-08-03T20:35:38.246Z,9.60
2022-08-03T20:38:09.384Z,9.50
2022-08-03T20:40:38.278Z,9.32
2022-08-03T20:43:09.303Z,10.73
2022-08-03T20:46:01.077Z,11.60
2022-08-03T20:48:26.660Z,12.10
2022-08-03T20:50:55.432Z,11.52
2022-08-03T20:53:31.159Z,12.13
2022-08-03T20:56:10.083Z,10.67
2022-08-03T20:58:37.546Z,10.68
2022-08-03T21:01:08.589Z,10.93
2022-08-03T21:03:40.499Z,11.63
2022-08-03T21:06:12.321Z,12.13
2022-08-03T21:08:48.208Z,11.48
2022-08-03T21:11:19.053Z,12.00
2022-08-03T21:12:57.779Z,4.60
2022-08-03T21:13:04.734Z,4.40
2022-08-03T21:13:09.879Z,10.63
2022-08-03T21:14:05.866Z,12.23
2022-08-03T21:16:33.880Z,12.20
2022-08-03T21:21:32.435Z,11.68
2022-08-03T21:24:03.561Z,11.45
2022-08-03T21:26:33.725Z,11.98
2022-08-03T21:29:02.387Z,11.68
2022-08-03T21:31:29.364Z,12.50
2022-08-03T21:33:58.425Z,13.10
2022-08-03T21:36:27.838Z,12.80
2022-08-03T21:38:56.996Z,10.98
2022-08-03T21:41:29.069Z,11.43
2022-08-03T21:43:56.492Z,11.73
2022-08-03T21:46:23.671Z,11.18
2022-08-03T21:48:56.597Z,11.80
2022-08-03T21:51:43.377Z,12.73
2022-08-03T21:54:11.629Z,12.40
2022-08-03T21:56:42.491Z,12.23
2022-08-03T21:59:17.355Z,12.27
2022-08-03T22:01:45.800Z,14.88
2022-08-03T22:04:50.222Z,14.45
2022-08-03T22:07:05.325Z,14.15
2022-08-03T22:09:34.242Z,15.07
2022-08-03T22:12:01.188Z,13.30
2022-08-03T22:14:28.214Z,13.75
2022-08-03T22:16:56.293Z,13.57
2022-08-03T22:21:50.484Z,11.93
2022-08-03T22:24:23.976Z,11.30
2022-08-03T22:27:10.010Z,13.05
2022-08-03T22:29:38.718Z,12.10
2022-08-03T22:32:06.892Z,12.30
2022-08-03T22:37:02.791Z,10.73
2022-08-03T22:39:30.450Z,10.48
2022-08-03T22:42:01.257Z,9.57
2022-08-03T22:44:28.325Z,10.68
2022-08-03T22:46:55.903Z,10.55
2022-08-03T22:49:22.867Z,10.93
2022-08-03T22:51:51.837Z,11.10
2022-08-03T22:54:19.049Z,9.75
2022-08-03T22:56:50.294Z,9.07
2022-08-03T22:59:40.082Z,10.13
2022-08-03T23:02:20.945Z,9.57
2022-08-03T23:04:56.841Z,9.30
2022-08-03T23:07:30.420Z,9.20
2022-08-03T23:09:58.132Z,9.07
2022-08-03T23:12:26.211Z,9.93
2022-08-03T23:17:23.808Z,9.23
2022-08-03T23:19:52.739Z,9.98
2022-08-03T23:22:30.074Z,9.63
2022-08-03T23:24:59.024Z,10.52
2022-08-03T23:27:27.947Z,9.80
2022-08-03T23:29:57.772Z,9.18
2022-08-03T23:32:29.163Z,10.73
2022-08-03T23:35:17.442Z,9.95
2022-08-03T23:38:22.447Z,10.75
2022-08-03T23:40:33.384Z,9.48
2022-08-03T23:43:01.903Z,9.57
2022-08-03T23:45:31.700Z,9.25
2022-08-03T23:47:58.469Z,9.13
2022-08-03T23:50:28.068Z,9.25
2022-08-03T23:53:30.313Z,9.35
2022-08-03T23:56:44.592Z,9.27
2022-08-03T23:59:37.220Z,10.23
